createdAt,value
2023-04-20T00:01:13.497Z,100494.94
2023-04-20T00:03:41.401Z,100496.47
2023-04-20T00:06:09.316Z,100506.78
2023-04-20T00:08:36.742Z,100508.41
2023-04-20T00:11:04.234Z,100503.69
2023-04-20T00:13:31.951Z,100488.72
2023-04-20T00:15:59.394Z,100492.47
2023-04-20T00:18:26.735Z,100485.41
2023-04-20T00:20:54.257Z,100487.09
2023-04-20T00:23:21.930Z,100490.00
2023-04-20T00:25:49.762Z,100495.66
2023-04-20T00:28:17.209Z,100499.50
2023-04-20T00:30:44.594Z,100498.66
2023-04-20T00:33:12.117Z,100496.19
2023-04-20T00:35:39.508Z,100486.66
2023-04-20T00:38:06.982Z,100473.34
2023-04-20T00:40:35.478Z,100480.69
2023-04-20T00:43:11.065Z,100473.81
2023-04-20T00:45:38.726Z,100475.25
2023-04-20T00:48:07.542Z,100466.53
2023-04-20T00:50:35.669Z,100454.50
2023-04-20T00:53:03.329Z,100452.56
2023-04-20T00:55:31.249Z,100455.13
2023-04-20T00:57:59.081Z,100457.78
2023-04-20T01:00:27.526Z,100442.88
2023-04-20T01:02:55.368Z,100447.19
2023-04-20T01:05:23.210Z,100438.06
2023-04-20T01:07:50.732Z,100449.25
2023-04-20T01:10:18.168Z,100438.00
2023-04-20T01:12:45.782Z,100439.22
2023-04-20T01:15:13.172Z,100421.44
2023-04-20T01:17:40.938Z,100412.69
2023-04-20T01:20:12.649Z,100420.22
2023-04-20T01:22:58.280Z,100420.16
2023-04-20T01:25:25.691Z,100415.97
2023-04-20T01:27:52.986Z,100422.47
2023-04-20T01:30:20.476Z,100418.28
2023-04-20T01:32:48.521Z,100416.19
2023-04-20T01:35:16.303Z,100418.69
2023-04-20T01:37:43.754Z,100416.59
2023-04-20T01:40:13.033Z,100407.69
2023-04-20T01:42:41.231Z,100413.41
2023-04-20T01:45:09.282Z,100421.56
2023-04-20T01:47:37.264Z,100421.34
2023-04-20T01:50:04.899Z,100415.34
2023-04-20T01:52:32.468Z,100407.06
2023-04-20T01:54:59.884Z,100403.91
2023-04-20T01:57:27.236Z,100410.13
2023-04-20T01:59:54.746Z,100414.50
2023-04-20T02:02:22.238Z,100409.38
2023-04-20T02:04:49.927Z,100400.69
2023-04-20T02:07:17.325Z,100386.78
2023-04-20T02:09:45.016Z,100383.69
2023-04-20T02:12:12.414Z,100383.94
2023-04-20T02:14:39.763Z,100389.72
2023-04-20T02:17:07.733Z,100388.06
2023-04-20T02:19:35.294Z,100384.78
2023-04-20T02:22:02.908Z,100383.69
2023-04-20T02:24:30.544Z,100381.59
2023-04-20T02:26:58.821Z,100390.19
2023-04-20T02:29:26.158Z,100384.91
2023-04-20T02:31:53.567Z,100386.97
2023-04-20T02:34:21.000Z,100387.63
2023-04-20T02:36:48.988Z,100382.03
2023-04-20T02:39:16.686Z,100384.13
2023-04-20T02:41:44.198Z,100385.94
2023-04-20T02:44:11.540Z,100384.47
2023-04-20T02:46:38.973Z,100391.59
2023-04-20T02:49:06.369Z,100390.75
2023-04-20T02:51:34.201Z,100388.69
2023-04-20T02:54:01.605Z,100398.19
2023-04-20T02:56:29.089Z,100392.81
2023-04-20T02:58:56.475Z,100392.03
2023-04-20T03:01:23.908Z,100396.28
2023-04-20T03:03:51.931Z,100392.38
2023-04-20T03:06:19.523Z,100397.50
2023-04-20T03:08:46.953Z,100397.28
2023-04-20T03:11:14.601Z,100391.84
2023-04-20T03:13:42.287Z,100392.38
2023-04-20T03:16:09.690Z,100394.34
2023-04-20T03:18:37.421Z,100393.13
2023-04-20T03:21:05.096Z,100390.09
2023-04-20T03:23:33.645Z,100386.56
2023-04-20T03:26:01.781Z,100387.66
2023-04-20T03:28:29.612Z,100390.53
2023-04-20T03:30:56.958Z,100390.59
2023-04-20T03:33:24.415Z,100393.50
2023-04-20T03:35:51.764Z,100391.00
2023-04-20T03:38:19.321Z,100388.50
2023-04-20T03:40:46.668Z,100385.44
2023-04-20T03:43:14.084Z,100388.38
2023-04-20T03:45:41.983Z,100392.34
2023-04-20T03:48:09.445Z,100387.28
2023-04-20T03:50:36.888Z,100391.63
2023-04-20T03:53:04.278Z,100382.34
2023-04-20T03:55:31.699Z,100382.75
2023-04-20T03:57:59.048Z,100381.88
2023-04-20T04:00:26.901Z,100376.31
2023-04-20T04:02:54.581Z,100380.63
2023-04-20T04:05:22.267Z,100381.06
2023-04-20T04:07:49.805Z,100381.72
2023-04-20T04:10:19.086Z,100390.19
2023-04-20T04:12:46.654Z,100391.47
2023-04-20T04:15:14.147Z,100385.69
2023-04-20T04:17:41.566Z,100385.28
2023-04-20T04:20:09.397Z,100383.22
2023-04-20T04:22:36.903Z,100384.47
2023-04-20T04:25:05.304Z,100378.78
2023-04-20T04:27:35.030Z,100367.38
2023-04-20T04:30:02.828Z,100364.44
2023-04-20T04:32:31.311Z,100370.69
2023-04-20T04:35:00.857Z,100369.50
2023-04-20T04:37:28.245Z,100367.06
2023-04-20T04:39:58.304Z,100371.00
2023-04-20T04:42:26.001Z,100367.28
2023-04-20T04:44:53.641Z,100367.47
2023-04-20T04:47:22.214Z,100373.69
2023-04-20T04:49:50.250Z,100371.63
2023-04-20T04:52:17.712Z,100368.69
2023-04-20T04:54:45.298Z,100367.41
2023-04-20T04:57:13.007Z,100372.44
2023-04-20T04:59:40.991Z,100372.28
2023-04-20T05:02:08.476Z,100373.31
2023-04-20T05:04:36.425Z,100374.19
2023-04-20T05:07:03.991Z,100375.44
2023-04-20T05:09:33.916Z,100377.28
2023-04-20T05:12:01.380Z,100374.59
2023-04-20T05:14:30.201Z,100386.16
2023-04-20T05:16:59.021Z,100384.53
2023-04-20T05:19:26.432Z,100389.09
2023-04-20T05:21:53.843Z,100387.38
2023-04-20T05:24:21.361Z,100387.34
2023-04-20T05:26:48.694Z,100386.38
2023-04-20T05:29:17.433Z,100390.69
2023-04-20T05:31:45.527Z,100386.19
2023-04-20T05:34:12.963Z,100394.09
2023-04-20T05:36:41.322Z,100386.97
2023-04-20T05:39:08.869Z,100386.34
2023-04-20T05:41:36.396Z,100377.78
2023-04-20T05:44:03.991Z,100380.75
2023-04-20T05:46:31.682Z,100384.47
2023-04-20T05:48:59.042Z,100386.06
2023-04-20T05:51:29.124Z,100388.19
2023-04-20T05:53:56.467Z,100393.56
2023-04-20T05:56:23.845Z,100393.00
2023-04-20T05:58:52.162Z,100395.63
2023-04-20T06:01:19.623Z,100403.13
2023-04-20T06:03:50.395Z,100406.44
2023-04-20T06:06:17.941Z,100398.47
2023-04-20T06:08:45.551Z,100403.91
2023-04-20T06:11:13.003Z,100405.56
2023-04-20T06:13:40.396Z,100401.38
2023-04-20T06:16:09.784Z,100401.41
2023-04-20T06:18:37.694Z,100406.84
2023-04-20T06:21:05.187Z,100405.56
2023-04-20T06:23:32.828Z,100397.22
2023-04-20T06:26:00.612Z,100402.63
2023-04-20T06:28:27.996Z,100398.03
2023-04-20T06:30:56.332Z,100394.72
2023-04-20T06:33:23.701Z,100395.81
2023-04-20T06:35:51.721Z,100385.44
2023-04-20T06:38:19.170Z,100380.16
2023-04-20T06:40:46.793Z,100387.22
2023-04-20T06:43:14.495Z,100384.97
2023-04-20T06:45:41.974Z,100384.63
2023-04-20T06:48:20.179Z,100388.03
2023-04-20T06:50:56.710Z,100390.44
2023-04-20T06:53:24.136Z,100385.88
2023-04-20T06:55:54.743Z,100385.81
2023-04-20T06:58:22.156Z,100378.25
2023-04-20T07:00:49.605Z,100386.38
2023-04-20T07:03:19.337Z,100384.25
2023-04-20T07:05:47.225Z,100383.22
2023-04-20T07:08:16.011Z,100384.53
2023-04-20T07:10:43.790Z,100383.97
2023-04-20T07:13:11.309Z,100383.09
2023-04-20T07:15:38.760Z,100380.88
2023-04-20T07:18:06.516Z,100376.13
2023-04-20T07:20:33.993Z,100363.25
2023-04-20T07:23:01.829Z,100365.75
2023-04-20T07:25:31.608Z,100365.34
2023-04-20T07:27:59.137Z,100364.31
2023-04-20T07:30:26.665Z,100362.22
2023-04-20T07:32:54.093Z,100359.34
2023-04-20T07:35:21.882Z,100364.34
2023-04-20T07:37:49.343Z,100357.91
2023-04-20T07:40:17.085Z,100357.91
2023-04-20T07:42:44.506Z,100364.53
2023-04-20T07:45:13.132Z,100367.44
2023-04-20T07:47:41.225Z,100358.72
2023-04-20T07:50:08.992Z,100358.53
2023-04-20T07:52:37.287Z,100358.50
2023-04-20T07:55:06.161Z,100365.78
2023-04-20T07:57:35.353Z,100358.50
2023-04-20T08:00:06.039Z,100357.44
2023-04-20T08:02:34.110Z,100355.41
2023-04-20T08:05:03.358Z,100356.31
2023-04-20T08:07:31.831Z,100357.69
2023-04-20T08:10:00.620Z,100363.78
2023-04-20T08:12:28.209Z,100365.28
2023-04-20T08:15:00.030Z,100370.50
2023-04-20T08:17:30.827Z,100374.59
2023-04-20T08:19:58.259Z,100370.63
2023-04-20T08:22:29.911Z,100378.00
2023-04-20T08:24:58.039Z,100382.25
2023-04-20T08:27:26.357Z,100384.66
2023-04-20T08:29:53.712Z,100388.75
2023-04-20T08:32:22.840Z,100389.75
2023-04-20T08:34:50.640Z,100383.75
2023-04-20T08:37:18.106Z,100393.56
2023-04-20T08:39:45.830Z,100381.72
2023-04-20T08:42:13.318Z,100388.69
2023-04-20T08:44:40.948Z,100398.78
2023-04-20T08:47:12.141Z,100403.91
2023-04-20T08:49:39.982Z,100395.03
2023-04-20T08:52:10.959Z,100398.28
2023-04-20T08:54:46.010Z,100403.22
2023-04-20T08:57:21.057Z,100399.63
2023-04-20T08:59:48.410Z,100410.16
2023-04-20T09:02:16.220Z,100411.38
2023-04-20T09:04:43.799Z,100411.03
2023-04-20T09:07:21.620Z,100402.13
2023-04-20T09:09:56.470Z,100410.13
2023-04-20T09:12:24.861Z,100412.69
2023-04-20T09:14:53.137Z,100404.09
2023-04-20T09:17:35.287Z,100407.97
2023-04-20T09:20:03.147Z,100407.03
2023-04-20T09:22:36.369Z,100400.16
2023-04-20T09:25:17.467Z,100399.47
2023-04-20T09:27:59.477Z,100393.81
2023-04-20T09:30:41.658Z,100378.53
2023-04-20T09:33:12.135Z,100381.09
2023-04-20T09:35:40.624Z,100382.16
2023-04-20T09:38:09.221Z,100380.75
2023-04-20T09:40:36.982Z,100375.78
2023-04-20T09:43:10.328Z,100366.84
2023-04-20T09:45:38.937Z,100368.50
2023-04-20T09:48:07.900Z,100366.06
2023-04-20T09:50:48.383Z,100352.34
2023-04-20T09:53:17.959Z,100350.69
2023-04-20T09:55:49.858Z,100351.75
2023-04-20T09:58:20.454Z,100349.03
2023-04-20T10:00:48.152Z,100357.16
2023-04-20T10:03:20.522Z,100366.38
2023-04-20T10:05:48.326Z,100368.38
2023-04-20T10:08:15.937Z,100372.63
2023-04-20T10:10:51.431Z,100379.16
2023-04-20T10:13:23.347Z,100377.09
2023-04-20T10:15:50.816Z,100380.81
2023-04-20T10:18:25.207Z,100376.78
2023-04-20T10:21:06.072Z,100384.03
2023-04-20T10:23:34.372Z,100392.63
2023-04-20T10:26:02.757Z,100388.25
2023-04-20T10:28:41.735Z,100391.25
2023-04-20T10:31:13.223Z,100390.34
2023-04-20T10:33:55.340Z,100396.38
2023-04-20T10:36:28.843Z,100393.56
2023-04-20T10:38:56.600Z,100404.81
2023-04-20T10:41:24.643Z,100409.56
2023-04-20T10:43:52.221Z,100408.59
2023-04-20T10:46:22.198Z,100409.84
2023-04-20T10:48:53.702Z,100407.88
2023-04-20T10:51:21.997Z,100404.28
2023-04-20T10:54:08.472Z,100407.78
2023-04-20T10:56:46.370Z,100406.22
2023-04-20T10:59:16.302Z,100402.34
2023-04-20T11:01:44.935Z,100399.88
2023-04-20T11:04:12.989Z,100402.78
2023-04-20T11:06:42.876Z,100408.06
2023-04-20T11:09:38.524Z,100410.78
2023-04-20T11:12:12.061Z,100400.44
2023-04-20T11:14:54.347Z,100411.38
2023-04-20T11:17:32.918Z,100419.31
2023-04-20T11:20:14.476Z,100407.91
2023-04-20T11:22:43.665Z,100405.84
2023-04-20T11:25:12.597Z,100407.75
2023-04-20T11:27:41.024Z,100405.97
2023-04-20T11:30:09.147Z,100400.81
2023-04-20T11:32:38.265Z,100407.31
2023-04-20T11:35:09.491Z,100399.56
2023-04-20T11:37:57.640Z,100395.91
2023-04-20T11:40:28.024Z,100389.28
2023-04-20T11:42:56.322Z,100379.13
2023-04-20T11:45:24.328Z,100369.66
2023-04-20T11:47:52.768Z,100367.88
2023-04-20T11:50:21.302Z,100365.94
2023-04-20T11:52:49.001Z,100364.38
2023-04-20T11:55:16.647Z,100366.91
2023-04-20T11:57:44.066Z,100361.78
2023-04-20T12:00:13.228Z,100358.63
2023-04-20T12:02:41.239Z,100352.78
2023-04-20T12:05:09.696Z,100351.72
2023-04-20T12:07:37.663Z,100355.41
2023-04-20T12:10:07.371Z,100349.25
2023-04-20T12:12:34.907Z,100346.84
2023-04-20T12:15:02.395Z,100351.81
2023-04-20T12:17:30.200Z,100349.44
2023-04-20T12:19:58.055Z,100353.94
2023-04-20T12:22:25.600Z,100356.31
2023-04-20T12:24:52.962Z,100355.34
2023-04-20T12:27:20.563Z,100353.06
2023-04-20T12:29:48.613Z,100350.25
2023-04-20T12:32:16.044Z,100346.19
2023-04-20T12:34:43.578Z,100334.91
2023-04-20T12:37:11.217Z,100338.41
2023-04-20T12:39:38.621Z,100331.91
2023-04-20T12:42:06.112Z,100330.06
2023-04-20T12:44:33.892Z,100330.69
2023-04-20T12:47:01.357Z,100332.72
2023-04-20T12:49:28.811Z,100329.50
2023-04-20T12:51:56.393Z,100327.31
2023-04-20T12:54:23.813Z,100328.34
2023-04-20T12:56:51.748Z,100322.94
2023-04-20T12:59:19.343Z,100322.84
2023-04-20T13:01:46.884Z,100324.47
2023-04-20T13:04:16.221Z,100316.19
2023-04-20T13:06:44.069Z,100317.38
2023-04-20T13:09:11.750Z,100315.88
2023-04-20T13:11:39.259Z,100313.56
2023-04-20T13:14:06.638Z,100313.91
2023-04-20T13:16:34.124Z,100316.44
2023-04-20T13:19:01.703Z,100322.47
2023-04-20T13:21:29.179Z,100315.56
2023-04-20T13:23:57.068Z,100323.72
2023-04-20T13:26:24.595Z,100304.63
2023-04-20T13:28:52.297Z,100313.69
2023-04-20T13:31:19.683Z,100313.53
2023-04-20T13:33:47.072Z,100316.84
2023-04-20T13:36:15.739Z,100311.38
2023-04-20T13:38:43.185Z,100306.25
2023-04-20T13:41:10.640Z,100303.38
2023-04-20T13:43:38.465Z,100303.13
2023-04-20T13:46:06.168Z,100295.50
2023-04-20T13:48:34.533Z,100299.72
2023-04-20T13:51:01.928Z,100305.66
2023-04-20T13:53:30.052Z,100310.97
2023-04-20T13:55:58.042Z,100299.66
2023-04-20T13:58:28.771Z,100301.16
2023-04-20T14:00:56.286Z,100280.25
2023-04-20T14:03:26.001Z,100281.84
2023-04-20T14:05:53.780Z,100276.81
2023-04-20T14:08:23.434Z,100289.50
2023-04-20T14:10:51.211Z,100292.19
2023-04-20T14:13:18.694Z,100298.09
2023-04-20T14:15:46.296Z,100299.84
2023-04-20T14:18:14.247Z,100287.69
2023-04-20T14:20:41.764Z,100296.00
2023-04-20T14:23:09.691Z,100295.66
2023-04-20T14:25:37.431Z,100297.66
2023-04-20T14:28:05.143Z,100296.63
2023-04-20T14:30:33.699Z,100298.84
2023-04-20T14:33:01.381Z,100306.84
2023-04-20T14:35:29.103Z,100308.41
2023-04-20T14:37:56.557Z,100313.69
2023-04-20T14:40:24.280Z,100310.09
2023-04-20T14:42:51.670Z,100319.16
2023-04-20T14:45:19.287Z,100316.63
2023-04-20T14:47:46.998Z,100324.28
2023-04-20T14:50:14.395Z,100315.25
2023-04-20T14:52:41.809Z,100319.81
2023-04-20T14:55:09.372Z,100321.56
2023-04-20T14:57:36.774Z,100324.44
2023-04-20T15:00:06.006Z,100320.03
2023-04-20T15:02:33.877Z,100318.88
2023-04-20T15:05:02.172Z,100312.97
2023-04-20T15:07:30.015Z,100325.72
2023-04-20T15:09:57.440Z,100325.94
2023-04-20T15:12:24.846Z,100319.47
2023-04-20T15:14:52.190Z,100325.50
2023-04-20T15:17:19.697Z,100329.28
2023-04-20T15:19:47.187Z,100327.41
2023-04-20T15:22:14.994Z,100323.63
2023-04-20T15:24:42.455Z,100331.91
2023-04-20T15:27:10.111Z,100319.50
2023-04-20T15:29:37.554Z,100318.91
2023-04-20T15:32:05.521Z,100311.81
2023-04-20T15:34:33.429Z,100311.16
2023-04-20T15:37:01.145Z,100311.13
2023-04-20T15:39:28.696Z,100299.50
2023-04-20T15:41:56.076Z,100299.38
2023-04-20T15:44:24.498Z,100297.03
2023-04-20T15:46:51.921Z,100301.84
2023-04-20T15:49:20.622Z,100303.50
2023-04-20T15:51:48.091Z,100308.09
2023-04-20T15:54:15.913Z,100312.63
2023-04-20T15:56:43.449Z,100316.56
2023-04-20T15:59:10.859Z,100328.31
2023-04-20T16:01:38.352Z,100322.06
2023-04-20T16:04:06.280Z,100324.59
2023-04-20T16:06:33.771Z,100329.16
2023-04-20T16:09:01.356Z,100327.13
2023-04-20T16:11:28.759Z,100332.09
2023-04-20T16:13:57.845Z,100327.16
2023-04-20T16:16:25.770Z,100334.66
2023-04-20T16:18:55.122Z,100327.13
2023-04-20T16:21:23.458Z,100327.97
2023-04-20T16:23:55.334Z,100327.03
2023-04-20T16:26:24.263Z,100338.59
2023-04-20T16:28:52.249Z,100344.63
2023-04-20T16:31:20.232Z,100355.97
2023-04-20T16:33:47.745Z,100354.50
2023-04-20T16:36:16.579Z,100353.50
2023-04-20T16:38:43.971Z,100359.03
2023-04-20T16:41:11.391Z,100365.97
2023-04-20T16:43:38.807Z,100367.19
2023-04-20T16:46:06.252Z,100363.53
2023-04-20T16:48:33.822Z,100362.72
2023-04-20T16:51:01.235Z,100356.72
2023-04-20T16:53:28.833Z,100355.06
2023-04-20T16:55:56.198Z,100352.72
2023-04-20T16:58:23.850Z,100358.13
2023-04-20T17:00:51.263Z,100359.19
2023-04-20T17:03:18.927Z,100362.75
2023-04-20T17:05:46.755Z,100372.78
2023-04-20T17:08:14.412Z,100372.38
2023-04-20T17:10:42.021Z,100374.63
2023-04-20T17:13:09.449Z,100375.91
2023-04-20T17:15:37.031Z,100377.78
2023-04-20T17:18:04.787Z,100376.13
2023-04-20T17:20:32.427Z,100386.94
2023-04-20T17:22:59.803Z,100390.25
2023-04-20T17:25:27.182Z,100387.78
2023-04-20T17:27:54.681Z,100387.75
2023-04-20T17:30:22.149Z,100381.56
2023-04-20T17:32:49.491Z,100383.81
2023-04-20T17:35:17.037Z,100383.84
2023-04-20T17:37:44.797Z,100384.06
2023-04-20T17:40:12.528Z,100382.59
2023-04-20T17:42:39.982Z,100382.59
2023-04-20T17:45:07.812Z,100389.66
2023-04-20T17:47:35.635Z,100390.31
2023-04-20T17:50:04.745Z,100391.13
2023-04-20T17:52:32.809Z,100388.22
2023-04-20T17:55:00.414Z,100380.72
2023-04-20T17:57:28.747Z,100384.69
2023-04-20T17:59:56.135Z,100378.44
2023-04-20T18:02:25.038Z,100377.03
2023-04-20T18:04:52.727Z,100378.84
2023-04-20T18:07:20.435Z,100377.41
2023-04-20T18:09:47.870Z,100364.97
2023-04-20T18:12:15.351Z,100373.91
2023-04-20T18:14:42.758Z,100372.44
2023-04-20T18:17:10.352Z,100366.19
2023-04-20T18:19:37.783Z,100359.31
2023-04-20T18:22:05.176Z,100357.69
2023-04-20T18:24:33.527Z,100362.25
2023-04-20T18:27:01.341Z,100358.31
2023-04-20T18:29:29.898Z,100360.78
2023-04-20T18:31:59.482Z,100361.22
2023-04-20T18:34:32.147Z,100359.13
2023-04-20T18:36:59.731Z,100362.00
2023-04-20T18:39:27.205Z,100370.13
2023-04-20T18:41:54.622Z,100364.13
2023-04-20T18:44:22.499Z,100354.13
2023-04-20T18:46:50.116Z,100359.56
2023-04-20T18:49:17.502Z,100353.72
2023-04-20T18:51:45.046Z,100349.56
2023-04-20T18:54:12.580Z,100344.16
2023-04-20T18:56:39.940Z,100345.00
2023-04-20T18:59:08.676Z,100342.91
2023-04-20T19:01:40.680Z,100344.34
2023-04-20T19:04:08.856Z,100347.69
2023-04-20T19:06:37.108Z,100342.09
2023-04-20T19:09:07.323Z,100342.91
2023-04-20T19:11:35.884Z,100342.09
2023-04-20T19:14:03.473Z,100327.13
2023-04-20T19:16:32.246Z,100333.38
2023-04-20T19:19:00.287Z,100332.13
2023-04-20T19:21:27.756Z,100328.38
2023-04-20T19:23:56.348Z,100327.53
2023-04-20T19:26:24.321Z,100329.19
2023-04-20T19:28:51.983Z,100325.66
2023-04-20T19:31:19.602Z,100317.78
2023-04-20T19:33:47.196Z,100311.94
2023-04-20T19:36:14.601Z,100319.84
2023-04-20T19:38:42.058Z,100323.19
2023-04-20T19:41:09.832Z,100326.72
2023-04-20T19:43:37.711Z,100335.44
2023-04-20T19:46:07.993Z,100332.56
2023-04-20T19:48:36.779Z,100336.91
2023-04-20T19:51:05.903Z,100332.53
2023-04-20T19:53:34.145Z,100339.41
2023-04-20T19:56:02.327Z,100339.19
2023-04-20T19:58:30.851Z,100342.09
2023-04-20T20:00:59.630Z,100336.69
2023-04-20T20:03:27.593Z,100330.06
2023-04-20T20:05:55.207Z,100340.44
2023-04-20T20:08:22.668Z,100338.16
2023-04-20T20:10:50.246Z,100344.16
2023-04-20T20:13:17.651Z,100337.94
2023-04-20T20:15:45.190Z,100339.59
2023-04-20T20:18:12.810Z,100343.56
2023-04-20T20:20:40.327Z,100336.72
2023-04-20T20:23:07.889Z,100343.34
2023-04-20T20:25:35.553Z,100335.44
2023-04-20T20:28:03.503Z,100339.19
2023-04-20T20:30:31.321Z,100341.28
2023-04-20T20:33:01.494Z,100341.72
2023-04-20T20:35:33.509Z,100335.47
2023-04-20T20:38:00.915Z,100335.06
2023-04-20T20:40:28.486Z,100339.59
2023-04-20T20:42:56.920Z,100332.78
2023-04-20T20:45:24.405Z,100335.47
2023-04-20T20:47:51.923Z,100330.47
2023-04-20T20:50:20.219Z,100332.97
2023-04-20T20:52:47.618Z,100326.94
2023-04-20T20:55:15.152Z,100328.22
2023-04-20T20:57:42.579Z,100328.19
2023-04-20T21:00:12.073Z,100330.47
2023-04-20T21:02:39.915Z,100321.97
2023-04-20T21:05:07.582Z,100318.22
2023-04-20T21:07:35.848Z,100317.19
2023-04-20T21:10:03.712Z,100314.69
2023-04-20T21:12:31.905Z,100314.28
2023-04-20T21:14:59.404Z,100304.31
2023-04-20T21:17:27.142Z,100304.72
2023-04-20T21:19:54.624Z,100301.63
2023-04-20T21:22:22.747Z,100299.31
2023-04-20T21:24:50.191Z,100299.34
2023-04-20T21:27:17.608Z,100298.28
2023-04-20T21:29:45.036Z,100295.59
2023-04-20T21:32:12.458Z,100287.25
2023-04-20T21:34:39.932Z,100291.00
2023-04-20T21:37:07.350Z,100287.25
2023-04-20T21:39:34.907Z,100286.25
2023-04-20T21:42:03.585Z,100271.28
2023-04-20T21:44:32.034Z,100281.66
2023-04-20T21:47:02.466Z,100278.53
2023-04-20T21:49:30.312Z,100280.22
2023-04-20T21:51:57.695Z,100279.81
2023-04-20T21:54:25.114Z,100272.72
2023-04-20T21:56:52.686Z,100273.38
2023-04-20T21:59:20.395Z,100271.28
2023-04-20T22:01:48.130Z,100265.28
2023-04-20T22:04:17.263Z,100261.09
2023-04-20T22:06:45.067Z,100261.75
2023-04-20T22:09:13.490Z,100254.06
2023-04-20T22:11:41.157Z,100262.97
2023-04-20T22:14:08.608Z,100255.06
2023-04-20T22:16:36.168Z,100262.75
2023-04-20T22:19:04.425Z,100261.53
2023-04-20T22:21:32.932Z,100269.38
2023-04-20T22:24:00.558Z,100259.44
2023-04-20T22:26:27.945Z,100261.94
2023-04-20T22:28:55.538Z,100262.38
2023-04-20T22:31:23.034Z,100252.00
2023-04-20T22:33:50.648Z,100253.84
2023-04-20T22:36:18.598Z,100255.94
2023-04-20T22:38:46.072Z,100248.25
2023-04-20T22:41:14.766Z,100242.88
2023-04-20T22:43:44.100Z,100238.72
2023-04-20T22:46:11.717Z,100234.34
2023-04-20T22:48:40.795Z,100243.06
2023-04-20T22:51:08.366Z,100233.69
2023-04-20T22:53:35.878Z,100242.84
2023-04-20T22:56:05.295Z,100230.41
2023-04-20T22:58:33.029Z,100228.75
2023-04-20T23:01:00.544Z,100229.34
2023-04-20T23:03:28.172Z,100224.16
2023-04-20T23:05:57.728Z,100223.34
2023-04-20T23:08:26.217Z,100227.69
2023-04-20T23:10:56.731Z,100224.59
2023-04-20T23:13:26.403Z,100217.13
2023-04-20T23:15:54.074Z,100217.72
2023-04-20T23:18:21.649Z,100222.09
2023-04-20T23:20:49.127Z,100210.06
2023-04-20T23:23:17.504Z,100219.59
2023-04-20T23:25:44.967Z,100214.41
2023-04-20T23:28:12.300Z,100211.31
2023-04-20T23:30:39.792Z,100214.63
2023-04-20T23:33:07.334Z,100213.16
2023-04-20T23:35:34.860Z,100210.44
2023-04-20T23:38:04.224Z,100215.66
2023-04-20T23:40:31.992Z,100213.38
2023-04-20T23:42:59.479Z,100220.84
2023-04-20T23:45:26.985Z,100211.50
2023-04-20T23:47:54.426Z,100212.13
2023-04-20T23:50:21.952Z,100217.13
2023-04-20T23:52:49.817Z,100206.53
2023-04-20T23:55:17.221Z,100204.25
2023-04-20T23:57:46.648Z,100206.94
